Time;durP1;ratioP1;P1;durP2;ratioP2;P2;SDS_P1;SDS_P2;PMS_P1;PMS_P2;Temp;Humidity;BMP_temperature;BMP_pressure;BME280_temperature;BME280_humidity;BME280_pressure;Samples;Min_cycle;Max_cycle;Signal;HPM_P1;HPM_P2
2022/09/05 00:01:34;;;;;;;5.20;2.95;;;19.60;87.20;;;;;;5040143;28;20072;-69
2022/09/05 00:04:43;;;;;;;8.77;3.50;;;19.60;87.90;;;;;;5039566;28;20053;-70
2022/09/05 00:07:32;;;;;;;6.28;3.13;;;19.60;87.80;;;;;;5038264;28;20109;-69
2022/09/05 00:10:25;;;;;;;3.47;2.80;;;19.50;87.60;;;;;;5043470;28;20423;-70
2022/09/05 00:12:55;;;;;;;4.72;2.90;;;19.50;87.90;;;;;;5043735;28;20069;-69
2022/09/05 00:15:39;;;;;;;8.00;3.78;;;19.40;87.80;;;;;;5028696;28;20041;-70
2022/09/05 00:18:20;;;;;;;6.57;3.45;;;19.40;88.30;;;;;;5048082;28;20053;-70
2022/09/05 00:21:04;;;;;;;7.40;3.15;;;19.40;88.40;;;;;;5044537;28;20092;-70
2022/09/05 00:23:48;;;;;;;8.13;3.30;;;19.40;89.00;;;;;;5042350;28;20118;-70
2022/09/05 00:26:38;;;;;;;8.02;3.72;;;19.30;88.40;;;;;;5043106;28;20049;-70
2022/09/05 00:29:25;;;;;;;9.27;3.85;;;19.30;88.60;;;;;;5042961;28;20048;-70
2022/09/05 00:32:30;;;;;;;13.18;4.18;;;19.20;88.90;;;;;;5043359;28;20049;-69
2022/09/05 00:35:15;;;;;;;6.47;3.40;;;19.20;89.40;;;;;;5040019;28;20045;-70
2022/09/05 00:37:44;;;;;;;8.13;3.80;;;19.10;89.20;;;;;;5045238;28;20067;-71
2022/09/05 00:40:15;;;;;;;6.80;3.97;;;19.10;89.30;;;;;;5042072;28;20064;-70
2022/09/05 00:42:43;;;;;;;6.35;3.97;;;19.10;89.50;;;;;;5044258;28;20071;-70
2022/09/05 00:45:16;;;;;;;9.73;4.57;;;19.10;89.60;;;;;;5045971;28;20052;-70
2022/09/05 00:47:56;;;;;;;12.27;4.43;;;19.10;89.70;;;;;;5045973;28;20566;-69
2022/09/05 00:50:32;;;;;;;7.50;4.03;;;19.00;90.00;;;;;;5047929;28;20058;-69
2022/09/05 00:53:19;;;;;;;11.65;4.45;;;19.00;90.00;;;;;;5045613;28;20171;-69
2022/09/05 00:56:21;;;;;;;7.85;4.45;;;19.00;90.30;;;;;;5046661;28;20099;-70
2022/09/05 00:59:43;;;;;;;11.15;4.95;;;18.90;90.20;;;;;;5063148;28;20495;-69
2022/09/05 01:02:38;;;;;;;6.38;4.68;;;18.90;90.50;;;;;;5051433;28;20175;-69
2022/09/05 01:05:12;;;;;;;8.20;4.32;;;18.90;90.50;;;;;;5047291;28;20045;-70
2022/09/05 01:08:16;;;;;;;9.48;4.70;;;18.90;90.40;;;;;;5053393;28;20053;-70
2022/09/05 01:10:51;;;;;;;11.88;4.65;;;18.80;90.60;;;;;;5047095;28;20055;-71
2022/09/05 01:13:43;;;;;;;7.70;4.40;;;18.80;90.50;;;;;;5046550;28;20507;-70
2022/09/05 01:16:15;;;;;;;10.85;4.75;;;18.80;90.80;;;;;;5051728;28;20102;-69
2022/09/05 01:18:40;;;;;;;7.65;4.68;;;18.70;90.60;;;;;;5060687;28;20435;-70
2022/09/05 01:21:18;;;;;;;6.93;4.93;;;18.70;90.70;;;;;;5048515;28;20476;-70
2022/09/05 01:23:59;;;;;;;8.43;4.97;;;18.60;90.80;;;;;;5047334;28;20132;-70
2022/09/05 01:26:50;;;;;;;11.82;4.07;;;18.60;90.90;;;;;;5051996;28;20135;-69
2022/09/05 01:29:34;;;;;;;7.10;4.70;;;18.60;91.10;;;;;;5050064;28;20532;-70
2022/09/05 01:32:31;;;;;;;8.05;4.35;;;18.60;91.00;;;;;;5048925;28;20090;-70
2022/09/05 01:35:26;;;;;;;12.55;4.55;;;18.60;91.20;;;;;;5051756;28;20076;-70
2022/09/05 01:38:05;;;;;;;9.00;4.82;;;18.60;91.30;;;;;;5021028;28;20050;-70
2022/09/05 01:41:03;;;;;;;8.32;4.68;;;18.50;91.20;;;;;;5043601;28;20500;-70
2022/09/05 01:44:07;;;;;;;7.63;4.65;;;18.50;91.40;;;;;;5046501;28;20116;-69
2022/09/05 01:46:50;;;;;;;7.43;4.78;;;18.50;91.50;;;;;;5043957;28;20067;-70
2022/09/05 01:49:45;;;;;;;8.57;4.80;;;18.50;91.50;;;;;;5046662;28;20128;-70
2022/09/05 01:52:38;;;;;;;9.45;4.60;;;18.40;91.60;;;;;;5049079;28;20099;-70
2022/09/05 01:55:12;;;;;;;6.50;4.40;;;18.40;91.70;;;;;;5041080;28;20076;-70
2022/09/05 01:57:47;;;;;;;7.13;4.78;;;18.40;91.80;;;;;;5040809;28;20570;-70
2022/09/05 02:00:20;;;;;;;8.23;4.35;;;18.40;91.80;;;;;;5046956;28;20524;-70
2022/09/05 02:02:51;;;;;;;6.25;4.63;;;18.40;91.80;;;;;;5049140;28;20114;-71
2022/09/05 02:05:56;;;;;;;8.73;4.50;;;18.40;91.90;;;;;;5048646;28;20448;-70
2022/09/05 02:08:51;;;;;;;8.73;4.70;;;18.30;92.00;;;;;;5024057;28;20049;-69
2022/09/05 02:11:17;;;;;;;9.52;4.75;;;18.30;92.10;;;;;;5050052;28;20040;-70
2022/09/05 02:13:43;;;;;;;7.88;4.38;;;18.30;92.00;;;;;;5043963;28;20056;-71
2022/09/05 02:16:12;;;;;;;8.85;4.70;;;18.30;92.10;;;;;;5045675;28;20110;-70
2022/09/05 02:19:13;;;;;;;7.90;4.68;;;18.20;92.20;;;;;;5024759;28;20052;-69
2022/09/05 02:22:06;;;;;;;7.50;4.65;;;18.20;92.50;;;;;;5046581;28;20041;-71
2022/09/05 02:24:32;;;;;;;5.93;4.43;;;18.20;92.60;;;;;;5025301;28;20045;-71
2022/09/05 02:27:27;;;;;;;6.70;4.88;;;18.10;92.50;;;;;;5047394;28;20048;-71
2022/09/05 02:30:08;;;;;;;7.95;4.75;;;18.10;92.70;;;;;;5023169;28;20064;-72
2022/09/05 02:32:56;;;;;;;10.35;4.40;;;18.10;92.70;;;;;;5046651;28;20048;-71
2022/09/05 02:35:35;;;;;;;7.10;4.80;;;18.00;92.90;;;;;;5040221;28;20045;-71
2022/09/05 02:38:06;;;;;;;7.70;4.30;;;18.00;93.00;;;;;;5047779;28;20100;-70
2022/09/05 02:40:34;;;;;;;6.72;4.60;;;18.00;93.00;;;;;;5045787;28;20033;-70
2022/09/05 02:43:41;;;;;;;7.93;4.32;;;17.90;93.20;;;;;;5047945;28;20479;-71
2022/09/05 02:46:17;;;;;;;6.63;4.05;;;17.90;93.40;;;;;;5000968;28;20107;-71
2022/09/05 02:48:53;;;;;;;10.82;4.53;;;17.90;93.40;;;;;;5048176;28;20451;-71
2022/09/05 02:51:44;;;;;;;5.63;4.30;;;17.80;93.50;;;;;;5047100;28;20045;-71
2022/09/05 02:54:28;;;;;;;5.68;4.43;;;17.80;93.60;;;;;;5058276;28;20107;-69
2022/09/05 02:57:24;;;;;;;7.78;4.57;;;17.70;93.80;;;;;;5048256;28;20052;-70
2022/09/05 03:00:37;;;;;;;11.52;4.82;;;17.70;94.10;;;;;;5049732;28;20077;-71
2022/09/05 03:04:02;;;;;;;6.82;5.03;;;17.60;94.00;;;;;;4989346;28;20057;-71
2022/09/05 03:06:57;;;;;;;7.72;4.78;;;17.60;94.10;;;;;;4988569;28;20050;-71
2022/09/05 03:09:38;;;;;;;7.82;4.32;;;17.50;94.20;;;;;;4988515;28;20054;-71
2022/09/05 03:12:09;;;;;;;10.05;4.88;;;17.50;94.30;;;;;;5041867;28;20151;-70
2022/09/05 03:15:07;;;;;;;8.15;4.05;;;17.50;94.20;;;;;;5046076;28;20124;-71
2022/09/05 03:17:35;;;;;;;8.45;5.10;;;17.40;94.60;;;;;;5034493;28;20040;-70
2022/09/05 03:20:55;;;;;;;6.97;4.57;;;17.40;94.50;;;;;;5045054;28;20041;-70
2022/09/05 03:23:46;;;;;;;7.90;4.50;;;17.40;94.70;;;;;;4983345;28;20569;-71
2022/09/05 03:26:17;;;;;;;7.90;4.75;;;17.40;94.80;;;;;;5039990;28;20078;-70
2022/09/05 03:29:02;;;;;;;5.50;4.45;;;17.30;94.80;;;;;;5045556;28;20036;-69
2022/09/05 03:31:49;;;;;;;8.55;4.80;;;17.30;94.90;;;;;;5044629;28;20052;-69
2022/09/05 03:34:53;;;;;;;6.70;4.50;;;17.30;95.10;;;;;;5038364;28;20499;-70
2022/09/05 03:37:22;;;;;;;7.68;4.50;;;17.20;95.10;;;;;;5048561;28;20036;-71
2022/09/05 03:40:09;;;;;;;7.88;5.28;;;17.20;95.20;;;;;;5042977;28;20056;-70
2022/09/05 03:42:45;;;;;;;8.00;4.20;;;17.10;95.30;;;;;;5046702;28;20419;-71
2022/09/05 03:45:49;;;;;;;6.32;4.60;;;17.10;95.30;;;;;;5042251;28;20477;-71
2022/09/05 03:48:27;;;;;;;7.93;4.75;;;17.10;95.80;;;;;;4988118;28;20045;-70
2022/09/05 03:51:08;;;;;;;6.50;4.32;;;17.00;95.60;;;;;;5021862;28;20424;-70
2022/09/05 03:54:06;;;;;;;8.90;4.70;;;17.10;95.80;;;;;;5047280;28;20056;-71
2022/09/05 03:56:38;;;;;;;7.85;5.13;;;17.00;96.10;;;;;;5046931;28;20048;-70
2022/09/05 03:59:26;;;;;;;10.02;4.97;;;17.00;96.00;;;;;;5045653;28;20102;-71
2022/09/05 04:02:02;;;;;;;7.05;4.95;;;17.00;96.00;;;;;;5043100;28;20059;-71
2022/09/05 04:04:32;;;;;;;6.63;4.85;;;17.00;96.10;;;;;;5045493;28;20092;-71
2022/09/05 04:07:17;;;;;;;10.35;4.85;;;17.00;96.20;;;;;;5046127;28;20037;-70
2022/09/05 04:09:56;;;;;;;6.13;4.70;;;17.00;96.20;;;;;;5046384;28;20858;-70
2022/09/05 04:12:34;;;;;;;9.70;5.38;;;16.90;96.40;;;;;;5044877;28;20056;-71
2022/09/05 04:15:44;;;;;;;6.70;4.50;;;16.90;96.60;;;;;;5046702;28;20045;-70
2022/09/05 04:18:18;;;;;;;6.40;4.93;;;16.90;96.70;;;;;;5056921;28;20049;-71
2022/09/05 04:20:50;;;;;;;7.68;4.90;;;16.90;96.60;;;;;;5045968;28;20182;-71
2022/09/05 04:23:50;;;;;;;8.05;5.07;;;16.90;96.60;;;;;;5050471;28;20045;-71
2022/09/05 04:26:29;;;;;;;10.07;5.45;;;16.80;96.80;;;;;;5045682;28;20056;-70
2022/09/05 04:29:23;;;;;;;7.43;5.35;;;16.80;96.90;;;;;;5054104;28;20052;-71
2022/09/05 04:32:10;;;;;;;7.93;5.40;;;16.80;97.20;;;;;;5052790;28;20077;-70
2022/09/05 04:35:06;;;;;;;8.18;5.20;;;16.80;97.30;;;;;;5052023;28;20079;-71
2022/09/05 04:37:53;;;;;;;8.57;5.53;;;16.80;97.50;;;;;;5049006;28;20076;-70
2022/09/05 04:40:28;;;;;;;11.23;5.45;;;16.70;97.80;;;;;;5044562;28;20056;-70
2022/09/05 04:42:59;;;;;;;9.32;5.47;;;16.70;97.50;;;;;;5048890;28;20045;-70
2022/09/05 04:45:29;;;;;;;11.40;4.88;;;16.70;97.70;;;;;;5049816;28;20037;-70
2022/09/05 04:47:58;;;;;;;10.20;5.03;;;16.70;97.80;;;;;;5048587;28;20037;-71
2022/09/05 04:50:25;;;;;;;11.00;5.32;;;16.60;97.90;;;;;;5047697;28;20419;-70
2022/09/05 04:53:26;;;;;;;9.95;5.35;;;16.50;98.00;;;;;;5051031;28;20083;-70
2022/09/05 04:55:56;;;;;;;10.40;5.05;;;16.60;98.00;;;;;;5050552;28;20433;-71
2022/09/05 04:58:31;;;;;;;7.35;4.60;;;16.60;98.00;;;;;;5051406;28;20423;-69
2022/09/05 05:01:15;;;;;;;7.68;5.22;;;16.60;98.00;;;;;;5050648;28;20114;-70
2022/09/05 05:03:42;;;;;;;7.90;5.57;;;16.60;98.20;;;;;;5045372;28;20049;-69
2022/09/05 05:06:12;;;;;;;11.27;5.43;;;16.60;98.40;;;;;;5046036;28;20497;-72
2022/09/05 05:08:55;;;;;;;17.10;5.43;;;16.60;98.30;;;;;;5047644;28;20060;-70
2022/09/05 05:11:36;;;;;;;11.85;5.22;;;16.60;98.40;;;;;;5051768;28;20041;-72
2022/09/05 05:14:24;;;;;;;17.40;6.07;;;16.60;98.50;;;;;;5044967;28;20048;-73
2022/09/05 05:17:07;;;;;;;9.48;5.18;;;16.60;98.40;;;;;;5053405;28;20541;-70
2022/09/05 05:19:45;;;;;;;8.10;5.22;;;16.60;98.50;;;;;;5045466;28;20033;-70
2022/09/05 05:22:15;;;;;;;8.20;5.35;;;16.60;98.50;;;;;;5047339;28;20122;-71
2022/09/05 05:24:47;;;;;;;10.15;5.38;;;16.60;98.60;;;;;;5049363;28;20060;-69
2022/09/05 05:27:36;;;;;;;13.48;5.35;;;16.60;98.70;;;;;;5049969;28;20064;-70
2022/09/05 05:30:05;;;;;;;10.10;5.07;;;16.60;98.70;;;;;;5046482;28;20128;-71
2022/09/05 05:32:50;;;;;;;15.40;5.60;;;16.60;98.60;;;;;;5049785;28;20484;-70
2022/09/05 05:35:29;;;;;;;9.52;5.50;;;16.70;98.70;;;;;;5054860;28;20037;-70
2022/09/05 05:38:32;;;;;;;8.65;5.65;;;16.70;98.80;;;;;;5053437;28;20115;-68
2022/09/05 05:41:28;;;;;;;7.93;5.45;;;16.70;98.90;;;;;;5043897;28;20041;-69
2022/09/05 05:43:54;;;;;;;11.95;5.88;;;16.70;98.90;;;;;;5014701;28;20088;-69
2022/09/05 05:46:31;;;;;;;9.68;5.85;;;16.70;98.70;;;;;;5045487;28;20072;-69
2022/09/05 05:49:15;;;;;;;8.60;5.75;;;16.70;98.90;;;;;;5051718;28;20033;-69
2022/09/05 05:51:57;;;;;;;9.35;5.70;;;16.80;98.80;;;;;;5047161;28;20135;-70
2022/09/05 05:54:35;;;;;;;7.97;5.47;;;16.80;98.90;;;;;;5051578;28;20059;-70
2022/09/05 05:57:25;;;;;;;;;;;16.80;98.90;;;;;;5040609;28;20412;-70
2022/09/05 06:00:03;;;;;;;8.07;5.88;;;16.80;99.10;;;;;;5046594;28;20474;-71
2022/09/05 06:02:56;;;;;;;11.98;5.50;;;16.90;98.80;;;;;;5050633;28;20103;-70
2022/09/05 06:05:37;;;;;;;7.63;5.50;;;16.90;99.10;;;;;;5050149;28;20075;-70
2022/09/05 06:08:22;;;;;;;10.85;5.93;;;17.00;99.10;;;;;;5053153;28;20147;-70
2022/09/05 06:11:13;;;;;;;12.10;5.93;;;17.00;99.00;;;;;;5051520;28;20151;-70
2022/09/05 06:14:18;;;;;;;13.68;6.20;;;17.10;98.90;;;;;;5050475;28;20075;-70
2022/09/05 06:17:07;;;;;;;10.68;5.93;;;17.20;98.70;;;;;;5020519;28;20141;-72
2022/09/05 06:19:52;;;;;;;14.48;6.25;;;17.30;98.50;;;;;;5036943;28;20408;-70
2022/09/05 06:22:39;;;;;;;12.80;6.18;;;17.40;98.40;;;;;;5039992;28;20076;-70
2022/09/05 06:25:42;;;;;;;18.50;5.68;;;17.50;98.40;;;;;;5039227;28;20523;-70
2022/09/05 06:28:29;;;;;;;9.45;5.75;;;17.50;98.20;;;;;;5047710;28;20384;-71
2022/09/05 06:31:06;;;;;;;16.90;5.90;;;17.60;98.00;;;;;;5048804;28;20045;-69
2022/09/05 06:33:55;;;;;;;11.10;5.88;;;17.80;98.00;;;;;;5049929;28;20049;-70
2022/09/05 06:36:30;;;;;;;13.88;5.72;;;18.00;97.70;;;;;;5051346;28;20040;-71
2022/09/05 06:39:08;;;;;;;9.50;5.75;;;18.40;97.40;;;;;;5050461;28;20052;-70
2022/09/05 06:41:46;;;;;;;9.85;5.80;;;18.80;96.70;;;;;;5049583;28;20043;-71
2022/09/05 06:44:21;;;;;;;11.85;5.97;;;19.10;95.90;;;;;;5041724;28;20099;-70
2022/09/05 06:46:50;;;;;;;10.50;5.85;;;19.30;95.40;;;;;;5053438;28;20056;-69
2022/09/05 06:49:16;;;;;;;11.85;6.20;;;19.50;95.00;;;;;;5049161;28;20045;-70
2022/09/05 06:51:53;;;;;;;9.68;5.40;;;19.80;94.60;;;;;;5048851;28;20389;-68
2022/09/05 06:54:37;;;;;;;18.70;5.88;;;20.00;94.10;;;;;;5037404;28;20045;-70
2022/09/05 06:57:18;;;;;;;9.38;5.10;;;20.10;93.90;;;;;;5050461;28;20045;-69
2022/09/05 07:00:22;;;;;;;12.63;5.75;;;20.10;93.50;;;;;;5048835;28;20448;-70
2022/09/05 07:02:57;;;;;;;10.10;6.13;;;20.30;93.20;;;;;;5049454;28;20048;-69
2022/09/05 07:05:34;;;;;;;11.43;5.82;;;20.60;93.00;;;;;;5047271;28;20129;-70
2022/09/05 07:08:25;;;;;;;12.60;5.75;;;20.70;92.20;;;;;;5045992;28;20076;-69
2022/09/05 07:10:59;;;;;;;6.97;5.50;;;20.80;92.10;;;;;;5045972;28;20075;-70
2022/09/05 07:13:51;;;;;;;10.93;5.72;;;20.60;92.10;;;;;;5047966;28;20157;-70
2022/09/05 07:16:23;;;;;;;8.20;5.25;;;20.40;92.40;;;;;;5033697;28;20060;-68
2022/09/05 07:18:49;;;;;;;7.13;5.00;;;20.30;92.70;;;;;;5046227;28;20045;-71
2022/09/05 07:21:15;;;;;;;8.25;4.90;;;20.30;92.90;;;;;;5042834;28;20049;-72
2022/09/05 07:23:50;;;;;;;10.65;5.65;;;20.40;92.90;;;;;;5048815;28;20195;-71
2022/09/05 07:26:18;;;;;;;9.02;5.38;;;20.40;92.70;;;;;;5046924;28;20036;-70
2022/09/05 07:28:48;;;;;;;9.65;5.32;;;20.50;92.70;;;;;;5047776;28;20559;-69
2022/09/05 07:31:17;;;;;;;10.15;4.80;;;20.60;92.50;;;;;;5046540;28;20497;-70
2022/09/05 07:33:46;;;;;;;10.18;5.13;;;20.70;92.30;;;;;;5049326;28;20041;-71
2022/09/05 07:36:20;;;;;;;7.85;5.43;;;20.70;92.00;;;;;;5050498;28;20551;-70
2022/09/05 07:38:50;;;;;;;6.97;4.93;;;20.80;92.00;;;;;;5041885;28;20605;-71
2022/09/05 07:41:27;;;;;;;8.15;5.43;;;20.90;91.90;;;;;;5046241;28;20041;-72
2022/09/05 07:44:00;;;;;;;8.57;5.30;;;21.00;91.80;;;;;;5048092;28;20053;-71
2022/09/05 07:46:32;;;;;;;13.07;5.95;;;21.20;91.70;;;;;;5040837;28;20433;-70
2022/09/05 07:49:17;;;;;;;8.77;5.25;;;21.30;91.50;;;;;;5041819;28;20128;-72
2022/09/05 07:51:54;;;;;;;11.35;4.75;;;21.40;91.50;;;;;;5047511;28;20052;-72
2022/09/05 07:54:31;;;;;;;13.18;5.13;;;21.60;91.10;;;;;;5042176;28;20070;-71
2022/09/05 07:57:02;;;;;;;9.32;5.38;;;21.80;91.20;;;;;;5046369;28;20041;-70
2022/09/05 07:59:34;;;;;;;9.15;5.22;;;22.00;91.10;;;;;;5042530;28;20029;-71
2022/09/05 08:02:01;;;;;;;10.15;5.53;;;22.10;90.90;;;;;;5044469;28;20049;-69
2022/09/05 08:04:30;;;;;;;12.77;5.35;;;22.20;90.70;;;;;;5046522;28;20052;-70
2022/09/05 08:07:00;;;;;;;12.50;6.03;;;22.30;90.70;;;;;;5047314;28;20045;-70
2022/09/05 08:09:39;;;;;;;8.90;5.20;;;22.40;90.60;;;;;;5040681;28;20068;-70
2022/09/05 08:12:35;;;;;;;9.52;4.40;;;22.60;90.50;;;;;;5045923;28;20072;-70
2022/09/05 08:15:10;;;;;;;6.20;4.53;;;22.80;90.10;;;;;;5044901;28;20049;-70
2022/09/05 08:18:04;;;;;;;7.45;4.45;;;23.00;90.10;;;;;;5046348;28;20624;-71
2022/09/05 08:20:35;;;;;;;7.53;4.63;;;23.10;90.00;;;;;;5039378;28;20088;-70
2022/09/05 08:23:32;;;;;;;10.75;4.20;;;23.40;89.40;;;;;;5032808;28;20033;-72
2022/09/05 08:26:14;;;;;;;6.95;4.72;;;23.60;88.80;;;;;;5041047;28;20380;-70
2022/09/05 08:28:58;;;;;;;10.68;4.72;;;23.80;87.60;;;;;;5045845;28;20111;-70
2022/09/05 08:31:37;;;;;;;10.73;4.43;;;23.90;86.80;;;;;;5043150;28;20140;-70
2022/09/05 08:34:10;;;;;;;15.88;4.90;;;23.90;87.50;;;;;;5047851;28;20064;-71
2022/09/05 08:36:45;;;;;;;16.33;4.97;;;24.00;87.70;;;;;;5047045;28;20041;-71
2022/09/05 08:39:15;;;;;;;13.73;4.45;;;24.20;87.50;;;;;;5049571;28;20056;-70
2022/09/05 08:42:11;;;;;;;11.23;4.55;;;24.30;87.40;;;;;;5046860;28;20084;-72
2022/09/05 08:45:28;;;;;;;17.77;4.60;;;24.40;87.30;;;;;;5048413;28;20049;-71
2022/09/05 08:48:18;;;;;;;8.65;4.82;;;24.50;86.40;;;;;;5007632;28;20171;-72
2022/09/05 08:51:18;;;;;;;12.00;4.82;;;24.50;86.20;;;;;;5048423;28;20133;-72
2022/09/05 08:54:07;;;;;;;8.52;4.15;;;24.60;86.50;;;;;;5040838;28;20614;-73
2022/09/05 08:57:12;;;;;;;12.65;4.57;;;24.60;86.20;;;;;;5036764;28;20688;-72
2022/09/05 09:00:06;;;;;;;8.52;3.70;;;24.70;85.90;;;;;;5021551;28;20041;-73
2022/09/05 09:02:50;;;;;;;10.77;4.10;;;24.80;85.80;;;;;;5046816;28;20045;-71
2022/09/05 09:05:36;;;;;;;12.75;5.05;;;25.00;86.20;;;;;;5056684;28;20037;-73
2022/09/05 09:08:14;;;;;;;8.70;4.53;;;25.10;85.30;;;;;;5055198;28;20123;-72
2022/09/05 09:10:53;;;;;;;7.87;4.67;;;25.40;85.00;;;;;;5034613;28;20095;-71
2022/09/05 09:13:34;;;;;;;8.88;4.85;;;25.40;84.50;;;;;;5052097;28;20102;-72
2022/09/05 09:16:34;;;;;;;11.88;4.65;;;25.60;84.40;;;;;;5051706;28;20045;-70
2022/09/05 09:19:33;;;;;;;8.90;4.55;;;25.70;84.00;;;;;;5010004;28;20094;-72
2022/09/05 09:22:40;;;;;;;10.32;4.20;;;25.70;84.00;;;;;;5042010;28;20060;-71
2022/09/05 09:25:20;;;;;;;10.07;4.40;;;25.70;83.10;;;;;;5026876;28;20057;-71
2022/09/05 09:28:13;;;;;;;9.50;4.28;;;25.90;83.70;;;;;;5048122;28;20041;-71
2022/09/05 09:30:44;;;;;;;8.32;4.38;;;26.00;82.70;;;;;;5052013;28;20131;-71
2022/09/05 09:33:19;;;;;;;6.68;3.80;;;26.10;82.60;;;;;;5054787;28;20438;-71
2022/09/05 09:36:04;;;;;;;13.57;4.30;;;26.20;82.30;;;;;;5054781;28;20048;-72
2022/09/05 09:38:49;;;;;;;7.60;4.20;;;26.20;82.40;;;;;;5039195;28;20423;-73
2022/09/05 09:41:29;;;;;;;9.15;4.00;;;26.20;82.80;;;;;;5051144;28;20099;-71
2022/09/05 09:43:58;;;;;;;8.75;3.70;;;26.40;82.00;;;;;;5034542;28;20132;-71
2022/09/05 09:46:44;;;;;;;6.53;3.70;;;26.60;82.30;;;;;;5053145;28;20128;-71
2022/09/05 09:49:58;;;;;;;6.95;4.53;;;26.70;81.60;;;;;;5050085;28;20072;-71
2022/09/05 09:52:47;;;;;;;12.30;4.07;;;26.80;80.70;;;;;;5028977;28;20084;-71
2022/09/05 09:55:41;;;;;;;10.73;3.80;;;26.80;81.10;;;;;;5037802;28;20393;-71
2022/09/05 09:58:28;;;;;;;8.18;4.32;;;27.10;80.60;;;;;;5065450;28;20087;-72
2022/09/05 10:01:06;;;;;;;5.88;3.33;;;27.20;79.70;;;;;;5053280;28;20059;-71
2022/09/05 10:04:00;;;;;;;4.93;3.25;;;27.40;80.10;;;;;;5050891;28;20061;-72
2022/09/05 10:06:44;;;;;;;8.07;3.65;;;27.50;79.70;;;;;;5035971;28;20091;-72
2022/09/05 10:09:19;;;;;;;5.85;3.30;;;27.60;78.20;;;;;;5052763;28;20571;-72
2022/09/05 10:11:54;;;;;;;5.85;3.08;;;27.70;78.80;;;;;;5049096;28;20041;-71
2022/09/05 10:14:20;;;;;;;8.63;3.10;;;27.70;78.50;;;;;;5050528;28;20414;-72
2022/09/05 10:17:14;;;;;;;5.82;2.88;;;27.80;78.30;;;;;;5052080;28;20059;-72
2022/09/05 10:19:55;;;;;;;3.65;2.50;;;27.90;77.20;;;;;;5047922;28;20098;-70
2022/09/05 10:22:26;;;;;;;9.35;2.70;;;28.00;77.00;;;;;;5051846;28;20037;-72
2022/09/05 10:25:13;;;;;;;5.70;3.10;;;28.10;77.30;;;;;;5052107;28;20045;-72
2022/09/05 10:28:22;;;;;;;6.45;2.80;;;28.30;76.20;;;;;;5048375;28;20110;-71
2022/09/05 10:30:51;;;;;;;6.43;2.40;;;28.50;76.00;;;;;;5049797;28;20041;-71
2022/09/05 10:33:28;;;;;;;7.13;2.78;;;28.80;76.20;;;;;;5053764;28;20045;-72
2022/09/05 10:36:26;;;;;;;5.05;2.55;;;29.00;74.40;;;;;;5047843;28;20426;-71
2022/09/05 10:39:13;;;;;;;4.43;2.60;;;29.10;74.00;;;;;;5049682;28;20052;-71
2022/09/05 10:41:58;;;;;;;5.00;2.25;;;29.30;74.50;;;;;;5052452;28;20041;-71
2022/09/05 10:44:46;;;;;;;6.50;2.20;;;29.60;73.20;;;;;;5042183;28;20056;-71
2022/09/05 10:47:25;;;;;;;;;;;29.80;74.00;;;;;;5043864;28;20547;-69
2022/09/05 10:50:11;;;;;;;5.30;2.10;;;30.00;72.70;;;;;;5050890;28;19927;-70
2022/09/05 10:52:49;;;;;;;4.60;2.47;;;30.20;72.10;;;;;;5047024;28;20357;-70
2022/09/05 10:55:16;;;;;;;5.95;2.30;;;30.20;71.20;;;;;;5052563;28;20045;-71
2022/09/05 10:58:03;;;;;;;4.10;2.10;;;30.40;72.00;;;;;;5053022;28;20088;-71
2022/09/05 11:00:48;;;;;;;5.65;2.20;;;30.60;70.90;;;;;;5035680;28;20057;-70
2022/09/05 11:03:22;;;;;;;5.63;2.10;;;30.80;71.30;;;;;;5047200;28;20053;-71
2022/09/05 11:06:04;;;;;;;7.88;2.35;;;31.10;70.80;;;;;;5051146;28;20053;-71
2022/09/05 11:08:30;;;;;;;4.15;2.38;;;31.40;69.70;;;;;;5054221;28;20041;-71
2022/09/05 11:11:20;;;;;;;5.47;2.20;;;31.40;68.30;;;;;;5048751;28;20040;-73
2022/09/05 11:13:49;;;;;;;2.85;2.05;;;31.60;68.70;;;;;;5043572;28;20456;-70
2022/09/05 11:17:01;;;;;;;9.27;2.40;;;31.70;68.00;;;;;;5038925;28;20048;-70
2022/09/05 11:19:58;;;;;;;3.83;1.98;;;31.90;67.20;;;;;;5037353;28;20516;-70
2022/09/05 11:22:28;;;;;;;7.25;2.63;;;32.30;67.30;;;;;;5052177;28;20119;-70
2022/09/05 11:25:01;;;;;;;5.90;2.40;;;32.40;66.00;;;;;;5033229;28;20140;-70
2022/09/05 11:27:38;;;;;;;6.53;2.28;;;32.40;65.80;;;;;;5051274;28;20044;-70
2022/09/05 11:30:09;;;;;;;7.75;2.40;;;32.50;65.90;;;;;;5051896;28;20473;-71
2022/09/05 11:32:54;;;;;;;9.60;2.33;;;32.30;65.40;;;;;;5044435;28;20045;-70
2022/09/05 11:35:23;;;;;;;6.47;2.20;;;32.00;65.40;;;;;;5034737;28;20057;-70
2022/09/05 11:38:03;;;;;;;9.88;2.33;;;31.80;65.60;;;;;;5049830;28;20072;-70
2022/09/05 11:40:45;;;;;;;8.50;2.50;;;31.70;65.70;;;;;;5048545;28;20052;-71
2022/09/05 11:43:52;;;;;;;4.72;2.00;;;31.80;65.80;;;;;;5043854;28;20550;-70
2022/09/05 11:46:40;;;;;;;2.90;1.95;;;31.80;64.90;;;;;;5042449;28;20587;-69
2022/09/05 11:49:24;;;;;;;2.58;1.98;;;31.90;65.00;;;;;;5049578;28;20041;-72
2022/09/05 11:52:11;;;;;;;4.45;2.50;;;32.00;65.10;;;;;;5049112;28;20045;-72
2022/09/05 11:54:55;;;;;;;6.63;2.50;;;31.80;65.10;;;;;;5051176;28;20051;-70
2022/09/05 11:57:43;;;;;;;7.22;2.38;;;31.80;64.60;;;;;;5050656;28;20497;-71
2022/09/05 12:00:37;;;;;;;6.75;2.40;;;31.90;65.10;;;;;;5049153;28;20052;-71
2022/09/05 12:03:27;;;;;;;6.22;2.40;;;32.10;64.90;;;;;;5033961;28;20460;-72
2022/09/05 12:06:13;;;;;;;7.22;2.40;;;32.00;64.40;;;;;;5048676;28;20432;-71
2022/09/05 12:09:23;;;;;;;6.53;2.70;;;32.10;64.00;;;;;;5045624;28;20049;-70
2022/09/05 12:12:07;;;;;;;5.20;2.20;;;32.20;64.20;;;;;;5050178;28;20044;-69
2022/09/05 12:15:00;;;;;;;4.40;2.10;;;32.60;64.70;;;;;;5048263;28;20127;-70
2022/09/05 12:17:36;;;;;;;5.03;2.38;;;33.00;63.70;;;;;;5048867;28;20079;-71
2022/09/05 12:20:31;;;;;;;5.13;2.10;;;33.30;63.00;;;;;;5048215;28;20664;-70
2022/09/05 12:23:18;;;;;;;3.65;2.20;;;33.40;62.30;;;;;;5050674;28;20098;-71
2022/09/05 12:25:57;;;;;;;6.80;2.35;;;33.30;61.40;;;;;;5043719;28;20144;-71
2022/09/05 12:28:34;;;;;;;6.38;2.30;;;33.40;61.70;;;;;;5065376;28;20055;-69
2022/09/05 12:31:17;;;;;;;5.63;2.35;;;33.50;60.60;;;;;;5050050;28;20057;-70
2022/09/05 12:33:47;;;;;;;4.53;2.40;;;33.30;60.70;;;;;;5049462;28;20045;-71
2022/09/05 12:36:34;;;;;;;4.85;2.20;;;33.30;61.20;;;;;;5048966;28;20052;-71
2022/09/05 12:39:15;;;;;;;4.97;2.33;;;33.30;61.40;;;;;;5050890;28;20052;-69
2022/09/05 12:41:47;;;;;;;5.25;2.20;;;33.30;60.90;;;;;;5046365;28;20128;-68
2022/09/05 12:44:45;;;;;;;7.95;2.30;;;33.30;61.80;;;;;;5048178;28;20041;-69
2022/09/05 12:47:15;;;;;;;7.45;2.65;;;33.30;61.80;;;;;;5049783;28;20052;-70
2022/09/05 12:49:56;;;;;;;4.15;2.20;;;33.10;61.50;;;;;;5052470;28;20045;-70
2022/09/05 12:52:38;;;;;;;6.07;2.20;;;33.10;61.90;;;;;;5055298;28;20043;-70
2022/09/05 12:55:10;;;;;;;6.13;2.28;;;33.10;60.70;;;;;;5051100;28;20063;-70
2022/09/05 12:57:41;;;;;;;7.18;2.30;;;32.80;60.60;;;;;;5052441;28;20099;-71
2022/09/05 13:00:16;;;;;;;7.25;2.40;;;32.60;61.40;;;;;;5051663;28;20068;-71
2022/09/05 13:02:52;;;;;;;5.78;2.15;;;32.50;61.10;;;;;;5043138;28;20048;-71
2022/09/05 13:05:25;;;;;;;13.37;2.80;;;32.30;61.10;;;;;;5049410;28;20055;-72
2022/09/05 13:07:57;;;;;;;5.88;2.42;;;32.00;61.60;;;;;;5053328;28;20120;-71
2022/09/05 13:10:36;;;;;;;5.05;2.50;;;31.70;62.00;;;;;;5065913;28;20405;-70
2022/09/05 13:13:07;;;;;;;10.20;2.90;;;31.40;62.50;;;;;;5050418;28;20733;-71
2022/09/05 13:15:38;;;;;;;3.88;2.55;;;31.30;62.70;;;;;;5053259;28;20041;-69
2022/09/05 13:18:21;;;;;;;6.75;2.33;;;31.20;62.90;;;;;;5053384;28;20106;-71
2022/09/05 13:20:57;;;;;;;3.78;2.50;;;31.40;63.10;;;;;;5049393;28;20053;-72
2022/09/05 13:23:57;;;;;;;5.77;2.70;;;31.40;62.60;;;;;;5049086;28;20477;-70
2022/09/05 13:26:43;;;;;;;4.10;2.38;;;31.50;63.00;;;;;;5053214;28;20315;-70
2022/09/05 13:29:15;;;;;;;6.57;2.78;;;31.80;63.20;;;;;;5051859;28;20053;-71
2022/09/05 13:31:40;;;;;;;8.73;3.05;;;32.00;62.10;;;;;;5051367;28;20048;-70
2022/09/05 13:34:19;;;;;;;3.40;2.20;;;32.30;61.80;;;;;;5052696;28;20040;-71
2022/09/05 13:37:02;;;;;;;6.30;2.40;;;32.50;61.50;;;;;;5053313;28;20041;-71
2022/09/05 13:39:38;;;;;;;4.55;2.30;;;32.80;61.50;;;;;;5034363;28;20416;-71
2022/09/05 13:42:04;;;;;;;4.88;2.50;;;33.10;61.00;;;;;;5069055;28;20442;-71
2022/09/05 13:44:37;;;;;;;4.22;2.40;;;33.30;60.30;;;;;;5057205;28;20116;-71
2022/09/05 13:47:13;;;;;;;6.00;2.53;;;33.20;60.00;;;;;;5048196;28;20045;-73
2022/09/05 13:49:52;;;;;;;7.20;2.47;;;32.80;60.10;;;;;;5046826;28;20049;-71
2022/09/05 13:52:17;;;;;;;7.22;2.53;;;32.40;61.10;;;;;;5051045;28;20076;-71
2022/09/05 13:55:26;;;;;;;3.70;2.33;;;31.90;61.80;;;;;;5052063;28;20095;-71
2022/09/05 13:58:10;;;;;;;4.70;2.35;;;31.50;61.80;;;;;;5052500;28;20691;-70
2022/09/05 14:00:39;;;;;;;6.93;2.13;;;31.10;62.20;;;;;;5050553;28;20507;-71
2022/09/05 14:03:31;;;;;;;8.75;2.20;;;30.90;62.60;;;;;;5049506;28;20053;-71
2022/09/05 14:06:24;;;;;;;5.22;2.25;;;30.50;63.20;;;;;;5052477;28;20071;-70